Time;durP1;ratioP1;P1;durP2;ratioP2;P2;SDS_P1;SDS_P2;PMS_P1;PMS_P2;Temp;Humidity;BMP_temperature;BMP_pressure;BME280_temperature;BME280_humidity;BME280_pressure;Samples;Min_cycle;Max_cycle;Signal;HPM_P1;HPM_P2
2024/01/18 00:01:38;;;;;;;17.15;9.38;;;1.90;99.90;;;;;;5005733;28;20036;-64
2024/01/18 00:04:04;;;;;;;16.85;8.80;;;1.90;99.90;;;;;;5006321;28;20427;-64
2024/01/18 00:06:31;;;;;;;21.00;9.27;;;1.90;99.90;;;;;;5007851;28;20030;-64
2024/01/18 00:08:57;;;;;;;18.70;9.70;;;1.90;99.90;;;;;;5005852;28;20037;-61
2024/01/18 00:11:25;;;;;;;24.15;10.80;;;1.90;99.90;;;;;;5009497;28;20095;-61
2024/01/18 00:13:51;;;;;;;19.23;9.95;;;1.90;99.90;;;;;;5000738;28;20041;-61
2024/01/18 00:16:16;;;;;;;18.45;9.25;;;1.90;99.90;;;;;;5006245;28;20640;-61
2024/01/18 00:18:42;;;;;;;18.65;9.18;;;1.90;99.90;;;;;;5006894;28;20037;-61
2024/01/18 00:21:08;;;;;;;21.15;10.27;;;1.90;99.90;;;;;;5003715;28;20036;-61
2024/01/18 00:23:34;;;;;;;17.45;8.50;;;1.90;99.90;;;;;;5005054;28;20048;-61
2024/01/18 00:25:59;;;;;;;18.27;9.90;;;1.90;99.90;;;;;;5006317;28;20038;-61
2024/01/18 00:28:25;;;;;;;17.25;8.90;;;1.90;99.90;;;;;;5003217;28;20041;-61
2024/01/18 00:30:51;;;;;;;21.35;9.73;;;1.80;99.90;;;;;;4995936;28;20411;-61
2024/01/18 00:33:17;;;;;;;15.30;8.65;;;1.80;99.90;;;;;;5002371;28;20026;-61
2024/01/18 00:35:42;;;;;;;23.70;11.20;;;1.80;99.90;;;;;;5002911;28;20418;-61
2024/01/18 00:38:08;;;;;;;24.55;10.32;;;1.70;99.90;;;;;;5006935;28;20033;-61
2024/01/18 00:40:34;;;;;;;27.27;11.88;;;1.70;99.90;;;;;;5001385;28;20021;-61
2024/01/18 00:43:00;;;;;;;21.30;10.45;;;1.80;99.90;;;;;;5002362;28;20111;-61
2024/01/18 00:45:26;;;;;;;26.83;11.40;;;1.80;99.90;;;;;;5001382;28;20030;-61
2024/01/18 00:47:51;;;;;;;32.47;13.30;;;1.70;99.90;;;;;;5004297;28;20029;-61
2024/01/18 00:50:17;;;;;;;28.15;10.95;;;1.70;99.90;;;;;;5007152;28;20072;-61
2024/01/18 00:52:43;;;;;;;32.45;12.75;;;1.80;99.90;;;;;;5003373;28;20120;-61
2024/01/18 00:55:10;;;;;;;33.83;11.30;;;1.80;99.90;;;;;;5001704;28;20121;-61
2024/01/18 00:57:36;;;;;;;25.60;11.45;;;1.80;99.90;;;;;;5002719;28;20489;-61
2024/01/18 01:00:02;;;;;;;23.40;9.75;;;1.80;99.90;;;;;;5002077;28;20038;-61
2024/01/18 01:02:28;;;;;;;20.25;10.75;;;1.80;99.90;;;;;;5003512;28;20033;-61
2024/01/18 01:04:54;;;;;;;24.40;11.00;;;1.80;99.90;;;;;;5004453;28;20116;-61
2024/01/18 01:07:19;;;;;;;24.45;9.73;;;1.80;99.90;;;;;;5005545;28;20029;-61
2024/01/18 01:09:45;;;;;;;21.38;10.38;;;1.80;99.90;;;;;;5003618;28;20673;-61
2024/01/18 01:12:11;;;;;;;20.90;9.70;;;1.80;99.90;;;;;;5006880;28;20034;-61
2024/01/18 01:14:36;;;;;;;23.83;10.02;;;1.80;99.90;;;;;;5003891;28;20034;-61
2024/01/18 01:17:03;;;;;;;26.02;10.73;;;1.80;99.90;;;;;;4999521;28;20045;-61
2024/01/18 01:19:28;;;;;;;23.40;10.73;;;1.80;99.90;;;;;;5004815;28;20086;-61
2024/01/18 01:21:54;;;;;;;22.02;10.05;;;1.80;99.90;;;;;;5000196;28;20568;-61
2024/01/18 01:24:20;;;;;;;23.95;10.27;;;1.80;99.90;;;;;;5002269;28;20478;-61
2024/01/18 01:26:45;;;;;;;22.17;10.77;;;1.80;99.90;;;;;;5002649;28;20061;-61
2024/01/18 01:29:11;;;;;;;22.13;10.43;;;1.80;99.90;;;;;;5002557;28;20148;-61
2024/01/18 01:31:37;;;;;;;22.40;9.90;;;1.80;99.90;;;;;;5006723;28;20057;-61
2024/01/18 01:34:03;;;;;;;21.45;9.85;;;1.80;99.90;;;;;;5003123;28;20026;-61
2024/01/18 01:36:28;;;;;;;21.75;10.60;;;1.70;99.90;;;;;;5005465;28;20460;-61
2024/01/18 01:38:54;;;;;;;23.85;10.57;;;1.80;99.90;;;;;;5005681;28;20045;-61
2024/01/18 01:41:20;;;;;;;18.45;9.90;;;1.80;99.90;;;;;;5000070;28;20030;-61
2024/01/18 01:43:59;;;;;;;18.48;10.25;;;1.70;99.90;;;;;;5003617;28;20029;-61
2024/01/18 01:46:27;;;;;;;21.35;9.80;;;1.70;99.90;;;;;;5000867;28;20030;-61
2024/01/18 01:48:59;;;;;;;17.65;9.02;;;1.70;99.90;;;;;;5002542;28;20104;-61
2024/01/18 01:51:24;;;;;;;27.48;11.52;;;1.70;99.90;;;;;;5001689;28;20022;-61
2024/01/18 01:53:53;;;;;;;19.83;9.88;;;1.70;99.90;;;;;;4997130;28;20069;-61
2024/01/18 01:56:20;;;;;;;20.60;10.45;;;1.70;99.90;;;;;;5002626;28;20044;-61
2024/01/18 01:58:48;;;;;;;20.70;9.68;;;1.80;99.90;;;;;;5004488;28;20040;-61
2024/01/18 02:01:13;;;;;;;20.60;10.10;;;1.80;99.90;;;;;;5000237;28;20037;-61
2024/01/18 02:03:39;;;;;;;19.50;10.13;;;1.80;99.90;;;;;;5002416;28;20029;-61
2024/01/18 02:06:05;;;;;;;19.55;9.43;;;1.80;99.90;;;;;;5001764;28;20823;-61
2024/01/18 02:08:31;;;;;;;23.75;10.77;;;1.80;99.90;;;;;;5002910;28;20405;-61
2024/01/18 02:10:58;;;;;;;19.90;9.90;;;1.80;99.90;;;;;;4999755;28;20044;-61
2024/01/18 02:13:25;;;;;;;21.30;9.35;;;1.80;99.90;;;;;;4997913;28;20040;-61
2024/01/18 02:15:51;;;;;;;20.10;10.65;;;1.80;99.90;;;;;;5004656;28;20091;-61
2024/01/18 02:18:16;;;;;;;24.33;9.05;;;1.80;99.90;;;;;;4999064;28;20034;-61
2024/01/18 02:20:42;;;;;;;17.38;8.73;;;1.80;99.90;;;;;;5002136;28;20042;-61
2024/01/18 02:23:11;;;;;;;19.42;10.25;;;1.80;99.90;;;;;;4997815;28;20034;-61
2024/01/18 02:25:37;;;;;;;18.63;8.82;;;1.80;99.90;;;;;;5002094;28;20064;-61
2024/01/18 02:28:02;;;;;;;18.75;9.25;;;1.80;99.90;;;;;;5002295;28;20471;-61
2024/01/18 02:30:28;;;;;;;18.35;8.75;;;1.80;99.90;;;;;;4998423;28;20081;-61
2024/01/18 02:32:54;;;;;;;16.38;8.85;;;1.80;99.90;;;;;;4997973;28;20037;-61
2024/01/18 02:35:20;;;;;;;18.15;10.15;;;1.80;99.90;;;;;;5001615;28;20030;-61
2024/01/18 02:37:46;;;;;;;21.83;10.02;;;1.80;99.90;;;;;;5000455;28;20026;-61
2024/01/18 02:40:12;;;;;;;22.80;10.27;;;1.80;99.90;;;;;;5004341;28;20041;-61
2024/01/18 02:42:38;;;;;;;16.85;9.43;;;1.80;99.90;;;;;;5002060;28;20046;-61
2024/01/18 02:45:05;;;;;;;23.23;10.02;;;1.80;99.90;;;;;;5005959;28;20018;-61
2024/01/18 02:47:31;;;;;;;19.88;9.40;;;1.80;99.90;;;;;;5005541;28;20038;-61
2024/01/18 02:49:57;;;;;;;20.05;9.07;;;1.80;99.90;;;;;;5001916;28;20056;-61
2024/01/18 02:52:23;;;;;;;21.38;9.35;;;1.80;99.90;;;;;;5002979;28;20482;-61
2024/01/18 02:54:49;;;;;;;18.40;9.55;;;1.80;99.90;;;;;;5001891;28;20034;-61
2024/01/18 02:57:14;;;;;;;22.23;10.70;;;1.80;99.90;;;;;;5000317;28;20046;-61
2024/01/18 02:59:40;;;;;;;22.00;9.82;;;1.80;99.90;;;;;;5005480;28;20030;-61
2024/01/18 03:02:06;;;;;;;19.48;10.40;;;1.80;99.90;;;;;;4995335;28;20521;-61
2024/01/18 03:04:32;;;;;;;18.77;9.57;;;1.70;99.90;;;;;;5003744;28;20451;-61
2024/01/18 03:06:58;;;;;;;18.70;9.18;;;1.80;99.90;;;;;;4998454;28;20061;-61
2024/01/18 03:09:24;;;;;;;18.05;9.27;;;1.80;99.90;;;;;;5000358;28;20065;-61
2024/01/18 03:11:50;;;;;;;19.00;8.88;;;1.80;99.90;;;;;;4997865;28;20057;-61
2024/01/18 03:14:15;;;;;;;20.23;9.50;;;1.70;99.90;;;;;;5005608;28;20485;-61
2024/01/18 03:16:42;;;;;;;16.77;8.95;;;1.80;99.90;;;;;;4998961;28;20458;-61
2024/01/18 03:19:12;;;;;;;19.92;9.32;;;1.70;99.90;;;;;;5001813;28;20026;-61
2024/01/18 03:21:38;;;;;;;17.05;8.75;;;1.80;99.90;;;;;;5005147;28;20030;-61
2024/01/18 03:24:04;;;;;;;20.73;9.75;;;1.80;99.90;;;;;;5005175;28;20038;-61
2024/01/18 03:26:30;;;;;;;15.85;8.63;;;1.70;99.90;;;;;;5001989;28;20397;-61
2024/01/18 03:28:55;;;;;;;16.30;9.18;;;1.70;99.90;;;;;;4999307;28;20050;-61
2024/01/18 03:31:21;;;;;;;15.00;7.93;;;1.70;99.90;;;;;;5005196;28;20026;-61
2024/01/18 03:33:47;;;;;;;21.02;9.93;;;1.70;99.90;;;;;;5006320;28;20524;-61
2024/01/18 03:36:13;;;;;;;16.17;8.95;;;1.70;99.90;;;;;;5008093;28;20536;-61
2024/01/18 03:38:38;;;;;;;15.88;8.15;;;1.70;99.90;;;;;;5007159;28;20034;-61
2024/01/18 03:41:04;;;;;;;20.00;9.10;;;1.70;99.90;;;;;;5008680;28;20054;-61
2024/01/18 03:43:30;;;;;;;18.85;8.68;;;1.60;99.90;;;;;;5002136;28;21046;-61
2024/01/18 03:45:56;;;;;;;19.30;9.02;;;1.60;99.90;;;;;;5004426;28;20030;-61
2024/01/18 03:48:22;;;;;;;18.45;9.35;;;1.60;99.90;;;;;;5008217;28;20037;-61
2024/01/18 03:50:48;;;;;;;17.60;8.88;;;1.60;99.90;;;;;;5007253;28;20037;-61
2024/01/18 03:53:13;;;;;;;19.20;9.43;;;1.60;99.90;;;;;;4999239;28;20524;-61
2024/01/18 03:55:40;;;;;;;18.88;8.90;;;1.60;99.90;;;;;;5008599;28;20025;-61
2024/01/18 03:58:06;;;;;;;16.17;8.27;;;1.60;99.90;;;;;;5002441;28;20197;-61
2024/01/18 04:00:32;;;;;;;15.23;8.07;;;1.60;99.90;;;;;;5004978;28;20379;-61
2024/01/18 04:02:58;;;;;;;16.85;9.02;;;1.60;99.90;;;;;;5005438;28;20132;-61
2024/01/18 04:05:24;;;;;;;20.42;9.55;;;1.60;99.90;;;;;;5007208;28;20120;-61
2024/01/18 04:07:49;;;;;;;18.08;9.27;;;1.50;99.90;;;;;;5003512;28;20478;-61
2024/01/18 04:10:15;;;;;;;20.63;9.65;;;1.60;99.90;;;;;;5004542;28;20058;-61
2024/01/18 04:12:42;;;;;;;19.80;9.52;;;1.50;99.90;;;;;;5004596;28;20048;-61
2024/01/18 04:15:09;;;;;;;17.67;9.00;;;1.50;99.90;;;;;;5005709;28;20489;-61
2024/01/18 04:17:34;;;;;;;21.08;9.40;;;1.50;99.90;;;;;;5006920;28;20018;-61
2024/01/18 04:20:00;;;;;;;18.38;8.85;;;1.50;99.90;;;;;;5004269;28;20487;-61
2024/01/18 04:22:26;;;;;;;19.20;9.00;;;1.50;99.90;;;;;;5000567;28;20126;-61
2024/01/18 04:24:53;;;;;;;17.42;9.20;;;1.50;99.90;;;;;;5004316;28;20033;-61
2024/01/18 04:27:19;;;;;;;16.38;8.25;;;1.50;99.90;;;;;;5000413;28;20048;-61
2024/01/18 04:29:45;;;;;;;20.08;9.07;;;1.50;99.90;;;;;;5003047;28;20033;-61
2024/01/18 04:32:10;;;;;;;17.95;10.18;;;1.50;99.90;;;;;;5007151;28;20113;-61
2024/01/18 04:34:37;;;;;;;19.40;8.88;;;1.50;99.90;;;;;;5004663;28;20116;-61
2024/01/18 04:37:03;;;;;;;17.90;8.85;;;1.50;99.90;;;;;;5004836;28;20398;-61
2024/01/18 04:39:29;;;;;;;20.52;9.40;;;1.50;99.90;;;;;;5004416;28;20040;-61
2024/01/18 04:41:55;;;;;;;19.17;8.45;;;1.50;99.90;;;;;;4999544;28;20748;-61
2024/01/18 04:44:21;;;;;;;21.80;9.10;;;1.50;99.90;;;;;;5004071;28;20498;-61
2024/01/18 04:46:47;;;;;;;19.80;9.10;;;1.50;99.90;;;;;;5004564;28;20092;-61
2024/01/18 04:49:13;;;;;;;19.10;9.88;;;1.40;99.90;;;;;;5001084;28;20038;-61
2024/01/18 04:51:39;;;;;;;17.08;9.27;;;1.40;99.90;;;;;;5000404;28;20038;-61
2024/01/18 04:54:05;;;;;;;20.02;9.48;;;1.40;99.90;;;;;;5003564;28;20045;-61
2024/01/18 04:56:31;;;;;;;20.95;9.68;;;1.40;99.90;;;;;;5006484;28;20133;-61
2024/01/18 04:58:57;;;;;;;20.05;9.75;;;1.40;99.90;;;;;;5006481;28;20040;-61
2024/01/18 05:01:23;;;;;;;23.05;10.30;;;1.40;99.90;;;;;;5004981;28;20057;-61
2024/01/18 05:03:48;;;;;;;19.55;9.80;;;1.40;99.90;;;;;;5000379;28;20069;-61
2024/01/18 05:06:14;;;;;;;22.38;9.90;;;1.40;99.90;;;;;;5003634;28;20057;-61
2024/01/18 05:08:40;;;;;;;18.63;9.07;;;1.40;99.90;;;;;;5006848;28;20030;-61
2024/01/18 05:11:06;;;;;;;21.42;10.18;;;1.40;99.90;;;;;;5000256;28;20555;-61
2024/01/18 05:13:32;;;;;;;17.27;9.10;;;1.40;99.90;;;;;;4999764;28;20397;-61
2024/01/18 05:15:59;;;;;;;18.67;9.85;;;1.40;99.90;;;;;;5003410;28;20033;-61
2024/01/18 05:18:25;;;;;;;17.55;9.57;;;1.40;99.90;;;;;;5006805;28;20041;-61
2024/01/18 05:20:50;;;;;;;23.85;10.82;;;1.40;99.90;;;;;;4999083;28;20042;-61
2024/01/18 05:23:16;;;;;;;27.02;11.77;;;1.40;99.90;;;;;;4999621;28;20034;-61
2024/01/18 05:25:42;;;;;;;24.05;11.30;;;1.40;99.90;;;;;;5001304;28;20034;-61
2024/01/18 05:28:08;;;;;;;21.63;10.98;;;1.40;99.90;;;;;;4998458;28;20035;-61
2024/01/18 05:30:33;;;;;;;20.73;10.52;;;1.30;99.90;;;;;;4999493;28;20068;-61
2024/01/18 05:32:59;;;;;;;21.45;11.35;;;1.30;99.90;;;;;;4998590;28;20069;-61
2024/01/18 05:35:25;;;;;;;18.02;10.27;;;1.30;99.90;;;;;;5006792;28;20060;-61
2024/01/18 05:37:51;;;;;;;22.25;10.88;;;1.30;99.90;;;;;;4999464;28;20516;-61
2024/01/18 05:40:21;;;;;;;18.73;10.20;;;1.30;99.90;;;;;;5005961;28;20034;-61
2024/01/18 05:42:46;;;;;;;19.67;9.93;;;1.30;99.90;;;;;;4999082;28;20124;-61
2024/01/18 05:45:12;;;;;;;18.05;10.48;;;1.20;99.90;;;;;;5002683;28;20055;-61
2024/01/18 05:47:39;;;;;;;20.77;10.38;;;1.20;99.90;;;;;;4999103;28;20493;-60
2024/01/18 05:50:06;;;;;;;26.48;11.55;;;1.20;99.90;;;;;;5004199;28;20046;-61
2024/01/18 05:52:32;;;;;;;21.50;11.20;;;1.20;99.90;;;;;;5004725;28;20041;-61
2024/01/18 05:54:58;;;;;;;22.52;11.23;;;1.20;99.90;;;;;;5000704;28;20034;-61
2024/01/18 05:57:24;;;;;;;23.83;10.80;;;1.20;99.90;;;;;;5004381;28;20022;-61
2024/01/18 05:59:50;;;;;;;20.83;10.65;;;1.30;99.90;;;;;;4998537;28;20045;-61
2024/01/18 06:02:16;;;;;;;25.15;10.15;;;1.30;99.90;;;;;;5002592;28;20034;-61
2024/01/18 06:04:42;;;;;;;26.23;11.75;;;1.30;99.90;;;;;;5002076;28;20073;-61
2024/01/18 06:07:08;;;;;;;23.85;11.10;;;1.30;99.90;;;;;;5002217;28;20068;-61
2024/01/18 06:09:33;;;;;;;24.98;11.63;;;1.30;99.90;;;;;;5002053;28;20036;-61
2024/01/18 06:11:59;;;;;;;21.48;10.38;;;1.30;99.90;;;;;;5003333;28;20084;-61
2024/01/18 06:14:25;;;;;;;28.50;11.65;;;1.30;99.90;;;;;;5002633;28;20304;-61
2024/01/18 06:16:51;;;;;;;25.05;11.02;;;1.30;99.90;;;;;;5004880;28;20041;-61
2024/01/18 06:19:16;;;;;;;23.30;10.85;;;1.30;99.90;;;;;;4995877;28;20816;-61
2024/01/18 06:21:42;;;;;;;21.65;11.40;;;1.30;99.90;;;;;;5000519;28;20038;-61
2024/01/18 06:24:08;;;;;;;22.25;10.40;;;1.30;99.90;;;;;;5005881;28;20508;-60
2024/01/18 06:26:34;;;;;;;21.95;10.68;;;1.30;99.90;;;;;;5001051;28;20099;-60
2024/01/18 06:29:00;;;;;;;21.80;10.23;;;1.30;99.90;;;;;;5000777;28;20379;-60
2024/01/18 06:31:27;;;;;;;19.50;9.10;;;1.20;99.90;;;;;;4998152;28;20034;-60
2024/01/18 06:33:58;;;;;;;29.17;11.73;;;1.20;99.90;;;;;;5002065;28;20704;-60
2024/01/18 06:36:24;;;;;;;21.10;10.55;;;1.20;99.90;;;;;;4998005;28;20026;-60
2024/01/18 06:38:50;;;;;;;17.85;9.65;;;1.20;99.90;;;;;;4999805;28;20509;-60
2024/01/18 06:41:16;;;;;;;17.15;9.18;;;1.20;99.90;;;;;;5002847;28;20030;-60
2024/01/18 06:43:42;;;;;;;22.67;9.98;;;1.20;99.90;;;;;;5001690;28;20061;-60
2024/01/18 06:46:18;;;;;;;20.08;10.05;;;1.20;99.90;;;;;;5005667;28;20596;-60
2024/01/18 06:48:50;;;;;;;21.58;11.00;;;1.20;99.90;;;;;;5004494;28;20053;-61
2024/01/18 06:51:16;;;;;;;18.83;9.38;;;1.10;99.90;;;;;;5003762;28;20046;-60
2024/01/18 06:53:42;;;;;;;23.45;12.38;;;1.10;99.90;;;;;;5007420;28;20052;-60
2024/01/18 06:56:12;;;;;;;19.85;9.50;;;1.10;99.90;;;;;;5009549;28;20058;-60
2024/01/18 06:58:38;;;;;;;21.55;11.65;;;1.10;99.90;;;;;;5009573;28;20030;-60
2024/01/18 07:01:04;;;;;;;25.92;11.07;;;1.10;99.90;;;;;;5009554;28;20026;-60
2024/01/18 07:03:30;;;;;;;20.95;10.38;;;1.10;99.90;;;;;;5007458;28;20040;-60
2024/01/18 07:05:57;;;;;;;22.58;11.13;;;1.00;99.90;;;;;;5004244;28;20142;-60
2024/01/18 07:08:26;;;;;;;20.23;10.75;;;1.00;99.90;;;;;;5003031;28;20116;-60
2024/01/18 07:10:52;;;;;;;22.00;12.02;;;0.90;99.90;;;;;;5009265;28;20025;-60
2024/01/18 07:13:18;;;;;;;24.33;11.63;;;0.90;99.90;;;;;;5009164;28;20398;-60
2024/01/18 07:15:44;;;;;;;22.50;10.85;;;0.90;99.90;;;;;;5003324;28;20056;-60
2024/01/18 07:18:09;;;;;;;24.33;11.85;;;0.80;99.90;;;;;;5008268;28;20068;-60
2024/01/18 07:20:35;;;;;;;20.52;11.07;;;0.80;99.90;;;;;;5006660;28;20037;-60
2024/01/18 07:23:01;;;;;;;20.63;11.25;;;0.80;99.90;;;;;;5008876;28;20050;-60
2024/01/18 07:25:26;;;;;;;23.23;11.13;;;0.80;99.90;;;;;;4997407;28;20066;-60
2024/01/18 07:27:52;;;;;;;23.67;12.95;;;0.80;99.90;;;;;;5008827;28;20041;-60
2024/01/18 07:30:18;;;;;;;24.85;12.85;;;0.80;99.90;;;;;;5008508;28;20049;-60
2024/01/18 07:32:45;;;;;;;22.42;11.05;;;0.80;99.90;;;;;;5006169;28;20030;-60
2024/01/18 07:35:11;;;;;;;26.23;12.45;;;0.70;99.90;;;;;;5003986;28;20038;-60
2024/01/18 07:37:37;;;;;;;25.42;11.95;;;0.70;99.90;;;;;;5005613;28;20044;-60
2024/01/18 07:40:03;;;;;;;22.17;11.50;;;0.70;99.90;;;;;;5008331;28;20886;-60
2024/01/18 07:42:29;;;;;;;25.38;11.80;;;0.70;99.90;;;;;;5003319;28;20156;-60
2024/01/18 07:44:54;;;;;;;28.20;12.63;;;0.80;99.90;;;;;;5004694;28;20120;-60
2024/01/18 07:47:20;;;;;;;27.40;11.85;;;0.80;99.90;;;;;;5002760;28;20121;-60
2024/01/18 07:49:46;;;;;;;21.20;11.10;;;0.90;99.90;;;;;;5007845;28;20150;-60
2024/01/18 07:52:15;;;;;;;24.27;12.13;;;0.90;99.90;;;;;;5006305;28;20100;-60
2024/01/18 07:54:41;;;;;;;23.00;11.10;;;0.90;99.90;;;;;;5001107;28;20034;-60
2024/01/18 07:57:06;;;;;;;24.00;11.55;;;0.90;99.90;;;;;;4989201;28;20026;-60
2024/01/18 07:59:32;;;;;;;19.27;9.93;;;1.00;99.90;;;;;;5000177;28;20482;-61
2024/01/18 08:01:59;;;;;;;25.65;11.50;;;1.00;99.90;;;;;;5001230;28;20052;-61
2024/01/18 08:04:25;;;;;;;24.30;12.35;;;1.10;99.90;;;;;;5033859;28;20034;-62
2024/01/18 08:06:52;;;;;;;24.17;11.80;;;1.10;99.90;;;;;;5007476;28;20108;-61
2024/01/18 08:09:18;;;;;;;23.15;12.38;;;1.20;99.90;;;;;;5004487;28;20045;-62
2024/01/18 08:11:43;;;;;;;26.75;13.57;;;1.30;99.90;;;;;;5007162;28;20026;-61
2024/01/18 08:14:11;;;;;;;26.42;12.20;;;1.30;99.90;;;;;;5004184;28;20040;-61
2024/01/18 08:16:37;;;;;;;22.73;11.73;;;1.40;99.90;;;;;;5006421;28;20099;-61
2024/01/18 08:19:02;;;;;;;30.60;14.77;;;1.50;99.90;;;;;;5000204;28;20033;-62
2024/01/18 08:21:28;;;;;;;104.90;35.85;;;1.50;99.90;;;;;;5005602;28;20484;-61
2024/01/18 08:23:54;;;;;;;94.85;32.15;;;1.60;99.90;;;;;;5004593;28;20069;-61
2024/01/18 08:26:21;;;;;;;72.43;29.33;;;1.80;99.90;;;;;;5004210;28;20030;-61
2024/01/18 08:28:47;;;;;;;65.22;30.30;;;1.80;99.90;;;;;;5007045;28;20120;-61
2024/01/18 08:31:13;;;;;;;40.50;18.48;;;1.80;99.90;;;;;;5003735;28;20033;-62
2024/01/18 08:33:39;;;;;;;33.28;16.42;;;1.90;99.90;;;;;;5006617;28;20380;-62
2024/01/18 08:36:07;;;;;;;39.00;18.92;;;2.00;99.90;;;;;;5007343;28;20026;-62
2024/01/18 08:38:33;;;;;;;34.45;16.23;;;2.00;99.90;;;;;;5000210;28;20402;-62
2024/01/18 08:40:59;;;;;;;34.42;16.67;;;2.10;99.90;;;;;;5001280;28;20030;-62
2024/01/18 08:43:27;;;;;;;34.47;15.25;;;2.20;99.90;;;;;;5003797;28;20037;-63
2024/01/18 08:45:56;;;;;;;25.40;13.25;;;2.20;99.90;;;;;;4998638;28;20030;-65
2024/01/18 08:48:22;;;;;;;33.40;13.52;;;2.20;99.90;;;;;;5006145;28;20030;-62
2024/01/18 08:50:47;;;;;;;29.35;13.80;;;2.30;99.90;;;;;;5001369;28;20048;-63
2024/01/18 08:53:13;;;;;;;30.55;13.18;;;2.30;99.90;;;;;;5004947;28;20030;-63
2024/01/18 08:55:40;;;;;;;32.05;15.93;;;2.30;99.90;;;;;;5005785;28;20485;-63
2024/01/18 08:58:06;;;;;;;55.10;22.95;;;2.40;99.90;;;;;;5004345;28;20041;-62
2024/01/18 09:00:32;;;;;;;31.70;16.60;;;2.40;99.90;;;;;;5004268;28;20057;-62
2024/01/18 09:02:58;;;;;;;31.42;15.07;;;2.50;99.90;;;;;;5006802;28;20060;-62
2024/01/18 09:05:24;;;;;;;37.53;17.35;;;2.50;99.90;;;;;;5006126;28;20478;-63
2024/01/18 09:07:49;;;;;;;28.45;15.98;;;2.50;99.90;;;;;;5005666;28;20041;-62
2024/01/18 09:10:15;;;;;;;33.05;15.23;;;2.50;99.90;;;;;;5003221;28;20045;-63
2024/01/18 09:12:41;;;;;;;31.08;15.15;;;2.50;99.90;;;;;;5006300;28;20045;-63
2024/01/18 09:15:07;;;;;;;34.38;16.05;;;2.60;99.90;;;;;;5001249;28;20245;-63
2024/01/18 09:17:33;;;;;;;31.80;15.18;;;2.60;99.90;;;;;;5005324;28;20022;-63
2024/01/18 09:19:59;;;;;;;26.85;13.57;;;2.70;99.90;;;;;;5005959;28;20441;-63
2024/01/18 09:22:25;;;;;;;28.75;13.40;;;2.70;99.90;;;;;;5001999;28;20033;-64
2024/01/18 09:24:50;;;;;;;31.50;14.68;;;2.80;99.90;;;;;;5002738;28;20045;-64
2024/01/18 09:27:16;;;;;;;27.70;14.05;;;2.80;99.90;;;;;;4998827;28;20062;-65
2024/01/18 09:29:42;;;;;;;28.17;14.15;;;2.80;99.90;;;;;;5000110;28;20038;-63
2024/01/18 09:32:08;;;;;;;29.52;13.73;;;2.80;99.90;;;;;;5006138;28;20030;-64
2024/01/18 09:34:34;;;;;;;29.83;13.45;;;2.70;99.90;;;;;;5005571;28;20482;-63
2024/01/18 09:36:59;;;;;;;29.63;14.20;;;2.70;99.90;;;;;;4989643;28;20033;-63
2024/01/18 09:39:25;;;;;;;32.55;14.98;;;2.70;99.90;;;;;;5005809;28;20114;-65
2024/01/18 09:41:58;;;;;;;33.08;15.23;;;2.70;99.90;;;;;;5003919;28;20521;-63
2024/01/18 09:44:27;;;;;;;29.63;13.15;;;2.70;99.90;;;;;;5001832;28;20068;-63
2024/01/18 09:46:53;;;;;;;29.88;14.05;;;2.70;99.90;;;;;;5002342;28;20045;-63
2024/01/18 09:49:20;;;;;;;27.13;14.15;;;2.70;99.90;;;;;;5001498;28;20034;-63
2024/01/18 09:51:46;;;;;;;28.20;14.07;;;2.70;99.90;;;;;;5004283;28;20358;-63
2024/01/18 09:54:12;;;;;;;27.65;14.40;;;2.70;99.90;;;;;;5005759;28;20852;-62
2024/01/18 09:56:45;;;;;;;27.25;13.80;;;2.70;99.90;;;;;;4998767;28;20029;-62
2024/01/18 09:59:18;;;;;;;26.08;13.40;;;2.80;99.90;;;;;;4994644;28;20038;-62
2024/01/18 10:01:45;;;;;;;26.52;12.70;;;2.80;99.90;;;;;;5003273;28;20033;-62
2024/01/18 10:04:14;;;;;;;33.08;14.77;;;2.80;99.90;;;;;;5004871;28;20124;-61
2024/01/18 10:06:41;;;;;;;28.92;13.13;;;2.80;99.90;;;;;;5000293;28;20083;-63
2024/01/18 10:09:16;;;;;;;31.42;14.52;;;2.80;99.90;;;;;;5000147;28;20069;-62
2024/01/18 10:11:46;;;;;;;29.00;16.35;;;2.80;99.90;;;;;;5002662;28;20553;-62
2024/01/18 10:14:12;;;;;;;28.35;15.40;;;2.90;99.90;;;;;;5003075;28;20034;-62
2024/01/18 10:16:40;;;;;;;42.25;20.50;;;2.90;99.90;;;;;;4997911;28;20085;-61
2024/01/18 10:19:18;;;;;;;32.60;15.18;;;2.90;99.90;;;;;;5003778;28;20485;-64
2024/01/18 10:21:46;;;;;;;35.58;16.00;;;2.90;99.90;;;;;;4997417;28;20034;-61
2024/01/18 10:24:13;;;;;;;43.20;22.52;;;2.80;99.90;;;;;;5005178;28;20080;-62
2024/01/18 10:26:40;;;;;;;52.25;26.33;;;2.90;99.90;;;;;;5005151;28;20044;-62
2024/01/18 10:29:06;;;;;;;38.42;18.10;;;2.90;99.90;;;;;;4999076;28;20049;-62
2024/01/18 10:31:32;;;;;;;41.75;22.38;;;2.90;99.90;;;;;;5002163;28;20061;-61
2024/01/18 10:33:58;;;;;;;30.17;15.15;;;3.00;99.90;;;;;;5005130;28;20556;-62
2024/01/18 10:36:25;;;;;;;42.60;23.33;;;3.00;99.90;;;;;;5004966;28;20366;-62
2024/01/18 10:38:51;;;;;;;56.25;31.95;;;3.10;99.90;;;;;;5004921;28;20092;-62
2024/01/18 10:41:20;;;;;;;39.70;20.52;;;3.10;99.90;;;;;;5000209;28;20033;-61
2024/01/18 10:43:47;;;;;;;35.50;17.73;;;3.10;99.90;;;;;;4998873;28;20070;-62
2024/01/18 10:46:13;;;;;;;58.65;24.20;;;3.10;99.90;;;;;;5001027;28;20057;-62
2024/01/18 10:48:43;;;;;;;36.60;18.77;;;3.10;99.90;;;;;;5001214;28;20046;-61
2024/01/18 10:51:09;;;;;;;34.10;18.92;;;3.10;99.90;;;;;;5000737;28;20038;-61
2024/01/18 10:53:37;;;;;;;39.90;19.40;;;3.10;99.90;;;;;;4993419;28;20615;-61
2024/01/18 10:56:03;;;;;;;51.65;23.10;;;3.10;99.90;;;;;;5001158;28;20030;-61
2024/01/18 10:58:30;;;;;;;46.75;21.55;;;3.10;99.90;;;;;;4999782;28;20405;-62
2024/01/18 11:00:57;;;;;;;44.13;17.83;;;3.20;99.90;;;;;;5000136;28;20045;-63
2024/01/18 11:03:23;;;;;;;39.25;19.73;;;3.20;99.90;;;;;;5000538;28;20775;-61
2024/01/18 11:05:49;;;;;;;41.13;18.55;;;3.20;99.90;;;;;;5001272;28;20026;-61
2024/01/18 11:08:17;;;;;;;42.60;19.98;;;3.30;99.90;;;;;;5004385;28;20509;-61
2024/01/18 11:10:46;;;;;;;37.17;16.58;;;3.30;99.90;;;;;;5001460;28;20045;-61
2024/01/18 11:13:15;;;;;;;40.65;18.50;;;3.10;99.90;;;;;;5001443;28;20038;-61
2024/01/18 11:15:43;;;;;;;35.90;16.60;;;3.00;99.90;;;;;;5004332;28;20053;-61
2024/01/18 11:18:12;;;;;;;39.47;17.58;;;2.90;99.90;;;;;;5004067;28;20516;-61
2024/01/18 11:21:08;;;;;;;41.28;20.00;;;3.00;99.90;;;;;;5003301;28;20045;-61
2024/01/18 11:23:39;;;;;;;49.60;22.27;;;3.00;99.90;;;;;;5000643;28;20026;-61
2024/01/18 11:26:07;;;;;;;43.92;21.30;;;3.00;99.90;;;;;;5000032;28;20740;-63
2024/01/18 11:28:35;;;;;;;35.08;17.52;;;3.00;99.90;;;;;;4999346;28;20124;-64
2024/01/18 11:31:01;;;;;;;32.08;16.92;;;3.00;99.90;;;;;;4998674;28;20100;-61
2024/01/18 11:33:27;;;;;;;29.23;14.70;;;3.10;99.90;;;;;;5004854;28;20034;-61
2024/01/18 11:35:54;;;;;;;31.33;16.17;;;3.00;99.90;;;;;;5005483;28;20034;-61
2024/01/18 11:38:32;;;;;;;32.72;15.85;;;3.00;99.90;;;;;;5002703;28;20030;-61
2024/01/18 11:41:09;;;;;;;34.65;15.73;;;3.00;99.90;;;;;;5005210;28;20383;-61
2024/01/18 11:43:55;;;;;;;27.60;13.95;;;2.90;99.90;;;;;;5003651;28;20030;-63
2024/01/18 11:46:41;;;;;;;25.88;14.18;;;2.90;99.90;;;;;;4999800;28;20057;-64
2024/01/18 11:49:08;;;;;;;31.73;16.17;;;2.90;99.90;;;;;;4994600;28;20042;-64
2024/01/18 11:51:35;;;;;;;33.55;16.02;;;2.90;99.90;;;;;;4999583;28;20034;-64
2024/01/18 11:54:02;;;;;;;30.02;14.95;;;2.90;99.90;;;;;;5005186;28;20494;-64
2024/01/18 11:56:28;;;;;;;29.75;14.18;;;2.90;99.90;;;;;;4995312;28;20063;-64
2024/01/18 11:58:57;;;;;;;30.83;15.13;;;2.90;99.90;;;;;;5001982;28;20030;-64
2024/01/18 12:01:23;;;;;;;35.97;18.48;;;3.00;99.90;;;;;;5005179;28;20037;-64
2024/01/18 12:03:49;;;;;;;28.13;13.90;;;3.00;99.90;;;;;;4999563;28;20666;-64
2024/01/18 12:06:15;;;;;;;27.50;13.82;;;2.90;99.90;;;;;;5005349;28;20069;-64
2024/01/18 12:08:41;;;;;;;26.10;12.80;;;2.90;99.90;;;;;;4986551;28;20038;-64
2024/01/18 12:11:08;;;;;;;27.38;14.27;;;2.90;99.90;;;;;;5002973;28;20061;-64
2024/01/18 12:13:34;;;;;;;29.25;13.43;;;2.90;99.90;;;;;;4998094;28;20513;-64
2024/01/18 12:15:59;;;;;;;32.05;14.70;;;2.90;99.90;;;;;;5005405;28;20103;-64
2024/01/18 12:18:25;;;;;;;30.50;13.82;;;2.80;99.90;;;;;;5002527;28;20487;-61
2024/01/18 12:20:51;;;;;;;31.23;15.20;;;2.90;99.90;;;;;;5006998;28;20418;-61
2024/01/18 12:23:17;;;;;;;29.40;14.73;;;2.80;99.90;;;;;;5001882;28;20481;-61
2024/01/18 12:25:46;;;;;;;29.88;14.77;;;2.90;99.90;;;;;;5005651;28;20104;-61
2024/01/18 12:28:12;;;;;;;37.78;15.70;;;3.00;99.90;;;;;;4999094;28;20061;-61
2024/01/18 12:30:42;;;;;;;31.90;15.88;;;3.10;99.90;;;;;;5001187;28;20486;-61
2024/01/18 12:33:09;;;;;;;29.42;14.43;;;3.10;99.90;;;;;;5003461;28;20766;-61
2024/01/18 12:35:38;;;;;;;33.53;15.57;;;3.20;99.90;;;;;;4998517;28;20542;-64
2024/01/18 12:38:04;;;;;;;28.58;14.40;;;3.20;99.90;;;;;;4994534;28;20065;-64